ENAT

Alta Airport

Alta, Norway
METAR ENAT 151150Z 15008KT CAVOK 04/M01 Q1006 RMK WIND 700FT 19017KT
Observed Flight Rules
Nov-15 @ 11:50 UTC (52 minutes ago) Visual Flight Rules
Wind Visibility Clouds
150° at 8 knots 10,000+ meters
  • Clear skies
Temperatures Readings
Current 4°C / 39°F
Dewpoint -1°C / 30°F
Humidity 70%
Altimeter 29.7" Hg
Pressure 1006 hPa
Elevation 3
METAR ENAT 151150Z 15008KT CAVOK 04/M01 Q1006 RMK WIND 700FT 19017KT
Observed Flight Rules
Nov-15 @ 11:50 UTC
(52 minutes ago)
VFR
Wind Visibility
150° at 8 knots 10,000+ meters
Clouds
  • Clear skies
Temperature Dewpoint
4°C / 39°F -1°C / 30°F
Humidity Altimeter Pressure
70% 29.7" Hg 1006 hPa